sensor_id;sensor_type;location;lat;lon;timestamp;pressure;altitude;pressure_sealevel;temperature;humidity
76024;BME280;64719;52.124;6.226;2023-02-01T00:02:11;102010.88;;;4.48;88.13
76024;BME280;64719;52.124;6.226;2023-02-01T00:04:38;102000.94;;;4.41;88.06
76024;BME280;64719;52.124;6.226;2023-02-01T00:07:05;101997.72;;;4.37;87.55
76024;BME280;64719;52.124;6.226;2023-02-01T00:09:32;101991.03;;;4.49;88.14
76024;BME280;64719;52.124;6.226;2023-02-01T00:11:59;102001.50;;;4.60;87.85
76024;BME280;64719;52.124;6.226;2023-02-01T00:14:27;101986.69;;;4.56;87.25
76024;BME280;64719;52.124;6.226;2023-02-01T00:16:53;101995.94;;;4.62;87.41
76024;BME280;64719;52.124;6.226;2023-02-01T00:19:20;102000.63;;;4.60;86.67
76024;BME280;64719;52.124;6.226;2023-02-01T00:21:46;101997.47;;;4.64;87.46
76024;BME280;64719;52.124;6.226;2023-02-01T00:24:20;101992.78;;;4.66;86.55
76024;BME280;64719;52.124;6.226;2023-02-01T00:26:47;101987.56;;;4.65;86.67
76024;BME280;64719;52.124;6.226;2023-02-01T00:29:15;101995.75;;;4.55;87.45
76024;BME280;64719;52.124;6.226;2023-02-01T00:31:43;101989.84;;;4.52;87.04
76024;BME280;64719;52.124;6.226;2023-02-01T00:34:12;101977.78;;;4.64;87.12
76024;BME280;64719;52.124;6.226;2023-02-01T00:36:39;101973.78;;;4.68;86.48
76024;BME280;64719;52.124;6.226;2023-02-01T00:39:05;101978.13;;;4.69;86.71
76024;BME280;64719;52.124;6.226;2023-02-01T00:41:33;101981.16;;;4.66;86.65
76024;BME280;64719;52.124;6.226;2023-02-01T00:44:00;101971.59;;;4.71;86.04
76024;BME280;64719;52.124;6.226;2023-02-01T00:46:27;101977.81;;;4.72;85.95
76024;BME280;64719;52.124;6.226;2023-02-01T00:48:54;101971.78;;;4.78;86.06
76024;BME280;64719;52.124;6.226;2023-02-01T00:51:22;101974.13;;;4.81;85.75
76024;BME280;64719;52.124;6.226;2023-02-01T00:53:50;101972.94;;;4.75;85.75
76024;BME280;64719;52.124;6.226;2023-02-01T00:56:17;101972.13;;;4.83;85.67
76024;BME280;64719;52.124;6.226;2023-02-01T00:58:45;101975.97;;;4.80;85.94
76024;BME280;64719;52.124;6.226;2023-02-01T01:01:13;101989.78;;;4.93;85.36
76024;BME280;64719;52.124;6.226;2023-02-01T01:03:41;101989.59;;;4.87;85.48
76024;BME280;64719;52.124;6.226;2023-02-01T01:06:10;101981.69;;;4.85;85.46
76024;BME280;64719;52.124;6.226;2023-02-01T01:08:37;101987.41;;;4.82;85.68
76024;BME280;64719;52.124;6.226;2023-02-01T01:11:04;101982.88;;;4.99;85.39
76024;BME280;64719;52.124;6.226;2023-02-01T01:13:31;101972.13;;;4.83;85.41
76024;BME280;64719;52.124;6.226;2023-02-01T01:16:01;101975.13;;;4.88;85.34
76024;BME280;64719;52.124;6.226;2023-02-01T01:18:29;101968.75;;;4.89;85.53
76024;BME280;64719;52.124;6.226;2023-02-01T01:20:55;101974.63;;;4.92;84.33
76024;BME280;64719;52.124;6.226;2023-02-01T01:23:22;101971.94;;;4.92;85.39
76024;BME280;64719;52.124;6.226;2023-02-01T01:25:49;101971.09;;;4.84;85.39
76024;BME280;64719;52.124;6.226;2023-02-01T01:28:16;101943.19;;;4.85;84.95
76024;BME280;64719;52.124;6.226;2023-02-01T01:30:42;101950.06;;;4.71;85.55
76024;BME280;64719;52.124;6.226;2023-02-01T01:33:10;101943.03;;;4.78;85.49
76024;BME280;64719;52.124;6.226;2023-02-01T01:35:37;101948.09;;;4.81;85.56
76024;BME280;64719;52.124;6.226;2023-02-01T01:38:04;101951.59;;;4.90;85.51
76024;BME280;64719;52.124;6.226;2023-02-01T01:40:31;101948.75;;;4.91;85.14
76024;BME280;64719;52.124;6.226;2023-02-01T01:42:58;101946.56;;;4.87;84.44
76024;BME280;64719;52.124;6.226;2023-02-01T01:45:26;101940.50;;;4.85;84.80
76024;BME280;64719;52.124;6.226;2023-02-01T01:47:55;101950.06;;;4.71;85.03
76024;BME280;64719;52.124;6.226;2023-02-01T01:50:24;101951.78;;;4.72;85.27
76024;BME280;64719;52.124;6.226;2023-02-01T01:52:54;101936.63;;;4.55;86.62
76024;BME280;64719;52.124;6.226;2023-02-01T01:55:21;101929.06;;;4.67;86.34
76024;BME280;64719;52.124;6.226;2023-02-01T01:57:52;101923.38;;;4.70;86.48
76024;BME280;64719;52.124;6.226;2023-02-01T02:00:22;101920.84;;;4.52;86.55
76024;BME280;64719;52.124;6.226;2023-02-01T02:02:53;101923.22;;;4.63;86.38
76024;BME280;64719;52.124;6.226;2023-02-01T02:05:21;101921.19;;;4.73;85.49
76024;BME280;64719;52.124;6.226;2023-02-01T02:07:51;101926.72;;;4.64;86.26
76024;BME280;64719;52.124;6.226;2023-02-01T02:10:19;101935.47;;;4.66;86.39
76024;BME280;64719;52.124;6.226;2023-02-01T02:12:47;101928.41;;;4.81;85.65
76024;BME280;64719;52.124;6.226;2023-02-01T02:15:15;101928.75;;;4.62;85.90
76024;BME280;64719;52.124;6.226;2023-02-01T02:17:46;101916.31;;;4.61;85.77
76024;BME280;64719;52.124;6.226;2023-02-01T02:20:39;101907.41;;;4.68;85.54
76024;BME280;64719;52.124;6.226;2023-02-01T02:26:24;101907.41;;;4.92;85.44
76024;BME280;64719;52.124;6.226;2023-02-01T02:29:19;101894.78;;;4.85;85.11
76024;BME280;64719;52.124;6.226;2023-02-01T02:32:13;101887.75;;;4.76;85.01
76024;BME280;64719;52.124;6.226;2023-02-01T02:34:53;101897.69;;;4.75;84.99
76024;BME280;64719;52.124;6.226;2023-02-01T02:37:29;101894.63;;;4.70;85.35
76024;BME280;64719;52.124;6.226;2023-02-01T02:40:05;101890.78;;;4.65;86.42
76024;BME280;64719;52.124;6.226;2023-02-01T02:42:39;101891.44;;;4.67;86.25
76024;BME280;64719;52.124;6.226;2023-02-01T02:45:28;101898.31;;;4.77;86.00
76024;BME280;64719;52.124;6.226;2023-02-01T02:48:34;101891.28;;;4.84;85.31
76024;BME280;64719;52.124;6.226;2023-02-01T02:51:09;101891.28;;;4.84;85.88
76024;BME280;64719;52.124;6.226;2023-02-01T02:53:58;101887.75;;;4.84;85.95
76024;BME280;64719;52.124;6.226;2023-02-01T02:56:44;101879.50;;;4.85;85.55
76024;BME280;64719;52.124;6.226;2023-02-01T02:59:28;101879.84;;;4.90;85.54
76024;BME280;64719;52.124;6.226;2023-02-01T03:02:14;101879.31;;;5.03;84.71
76024;BME280;64719;52.124;6.226;2023-02-01T03:04:59;101872.94;;;4.88;85.64
76024;BME280;64719;52.124;6.226;2023-02-01T03:10:45;101856.00;;;4.87;85.84
76024;BME280;64719;52.124;6.226;2023-02-01T03:13:15;101843.53;;;4.86;86.72
76024;BME280;64719;52.124;6.226;2023-02-01T03:15:50;101847.06;;;4.79;86.63
76024;BME280;64719;52.124;6.226;2023-02-01T03:18:22;101848.94;;;4.78;86.73
76024;BME280;64719;52.124;6.226;2023-02-01T03:20:55;101845.25;;;4.79;86.99
76024;BME280;64719;52.124;6.226;2023-02-01T03:23:26;101845.25;;;4.79;86.32
76024;BME280;64719;52.124;6.226;2023-02-01T03:25:57;101856.69;;;4.81;86.37
76024;BME280;64719;52.124;6.226;2023-02-01T03:28:27;101858.47;;;4.97;86.37
76024;BME280;64719;52.124;6.226;2023-02-01T03:30:55;101863.84;;;4.97;86.30
76024;BME280;64719;52.124;6.226;2023-02-01T03:33:25;101867.75;;;4.94;86.62
76024;BME280;64719;52.124;6.226;2023-02-01T03:35:59;101871.28;;;4.95;86.90
76024;BME280;64719;52.124;6.226;2023-02-01T03:38:28;101866.41;;;4.90;87.18
76024;BME280;64719;52.124;6.226;2023-02-01T03:41:03;101872.59;;;4.99;87.01
76024;BME280;64719;52.124;6.226;2023-02-01T03:43:41;101865.03;;;5.02;86.07
76024;BME280;64719;52.124;6.226;2023-02-01T03:46:12;101855.09;;;5.03;86.14
76024;BME280;64719;52.124;6.226;2023-02-01T03:48:44;101855.81;;;4.89;87.32
76024;BME280;64719;52.124;6.226;2023-02-01T03:51:11;101858.16;;;4.92;87.64
76024;BME280;64719;52.124;6.226;2023-02-01T03:53:39;101844.56;;;4.93;87.20
76024;BME280;64719;52.124;6.226;2023-02-01T03:56:08;101847.06;;;4.95;86.85
76024;BME280;64719;52.124;6.226;2023-02-01T03:58:37;101850.22;;;5.06;86.74
76024;BME280;64719;52.124;6.226;2023-02-01T04:01:03;101851.09;;;5.07;85.89
76024;BME280;64719;52.124;6.226;2023-02-01T04:03:30;101847.88;;;5.19;85.63
76024;BME280;64719;52.124;6.226;2023-02-01T04:05:57;101843.31;;;5.20;85.17
76024;BME280;64719;52.124;6.226;2023-02-01T04:08:24;101849.91;;;5.01;85.54
76024;BME280;64719;52.124;6.226;2023-02-01T04:10:50;101838.00;;;4.88;85.81
76024;BME280;64719;52.124;6.226;2023-02-01T04:13:18;101851.94;;;4.83;86.29
76024;BME280;64719;52.124;6.226;2023-02-01T04:15:46;101846.84;;;5.12;85.54
76024;BME280;64719;52.124;6.226;2023-02-01T04:18:15;101862.66;;;5.23;84.56
76024;BME280;64719;52.124;6.226;2023-02-01T04:20:42;101868.50;;;5.35;84.89
76024;BME280;64719;52.124;6.226;2023-02-01T04:23:09;101859.59;;;5.34;84.20
76024;BME280;64719;52.124;6.226;2023-02-01T04:25:36;101862.06;;;5.44;84.28
76024;BME280;64719;52.124;6.226;2023-02-01T04:28:03;101859.94;;;5.70;83.40
76024;BME280;64719;52.124;6.226;2023-02-01T04:30:31;101861.19;;;5.59;82.56
76024;BME280;64719;52.124;6.226;2023-02-01T04:32:57;101858.81;;;5.64;82.96
76024;BME280;64719;52.124;6.226;2023-02-01T04:35:24;101860.75;;;5.87;82.22
76024;BME280;64719;52.124;6.226;2023-02-01T04:37:50;101855.84;;;5.90;81.84
76024;BME280;64719;52.124;6.226;2023-02-01T04:40:17;101848.91;;;5.96;81.56
76024;BME280;64719;52.124;6.226;2023-02-01T04:42:44;101854.63;;;6.01;81.20
76024;BME280;64719;52.124;6.226;2023-02-01T04:45:10;101866.03;;;6.03;80.88
76024;BME280;64719;52.124;6.226;2023-02-01T04:47:38;101869.53;;;6.11;80.65
76024;BME280;64719;52.124;6.226;2023-02-01T04:50:05;101866.16;;;6.09;80.75
76024;BME280;64719;52.124;6.226;2023-02-01T04:52:35;101864.16;;;6.11;80.41
76024;BME280;64719;52.124;6.226;2023-02-01T04:55:02;101865.84;;;6.04;80.73
76024;BME280;64719;52.124;6.226;2023-02-01T04:57:29;101857.25;;;6.09;80.71
76024;BME280;64719;52.124;6.226;2023-02-01T04:59:55;101858.59;;;6.13;80.36
76024;BME280;64719;52.124;6.226;2023-02-01T05:02:22;101873.69;;;6.22;80.06
76024;BME280;64719;52.124;6.226;2023-02-01T05:04:50;101873.84;;;6.20;80.27
76024;BME280;64719;52.124;6.226;2023-02-01T05:07:16;101852.34;;;6.12;80.46
76024;BME280;64719;52.124;6.226;2023-02-01T05:09:43;101859.81;;;6.02;80.88
76024;BME280;64719;52.124;6.226;2023-02-01T05:12:09;101837.81;;;6.21;80.16
76024;BME280;64719;52.124;6.226;2023-02-01T05:14:54;101833.97;;;6.16;79.79
76024;BME280;64719;52.124;6.226;2023-02-01T05:17:20;101837.06;;;6.05;80.76
76024;BME280;64719;52.124;6.226;2023-02-01T05:19:47;101845.50;;;6.02;80.45
76024;BME280;64719;52.124;6.226;2023-02-01T05:22:15;101841.19;;;5.93;80.78
76024;BME280;64719;52.124;6.226;2023-02-01T05:24:41;101847.59;;;5.92;81.08
76024;BME280;64719;52.124;6.226;2023-02-01T05:27:08;101836.75;;;6.00;80.50
76024;BME280;64719;52.124;6.226;2023-02-01T05:29:34;101837.78;;;5.99;80.86
76024;BME280;64719;52.124;6.226;2023-02-01T05:32:10;101831.72;;;5.97;80.43
76024;BME280;64719;52.124;6.226;2023-02-01T05:34:36;101818.19;;;5.82;81.24
76024;BME280;64719;52.124;6.226;2023-02-01T05:37:03;101834.69;;;6.10;80.94
76024;BME280;64719;52.124;6.226;2023-02-01T05:39:31;101822.53;;;6.14;80.39
76024;BME280;64719;52.124;6.226;2023-02-01T05:41:57;101821.50;;;6.15;80.65
76024;BME280;64719;52.124;6.226;2023-02-01T05:44:24;101820.16;;;6.19;80.53
76024;BME280;64719;52.124;6.226;2023-02-01T05:46:50;101823.66;;;6.19;80.41
76024;BME280;64719;52.124;6.226;2023-02-01T05:49:17;101829.03;;;6.19;80.72
76024;BME280;64719;52.124;6.226;2023-02-01T05:51:44;101855.81;;;6.21;80.83
76024;BME280;64719;52.124;6.226;2023-02-01T05:54:10;101841.38;;;6.14;81.07
76024;BME280;64719;52.124;6.226;2023-02-01T05:56:38;101844.56;;;6.17;81.12
76024;BME280;64719;52.124;6.226;2023-02-01T05:59:05;101846.72;;;6.22;81.18
76024;BME280;64719;52.124;6.226;2023-02-01T06:01:32;101847.88;;;6.27;80.94
76024;BME280;64719;52.124;6.226;2023-02-01T06:03:59;101865.25;;;6.25;80.96
76024;BME280;64719;52.124;6.226;2023-02-01T06:06:25;101862.19;;;6.28;81.03
76024;BME280;64719;52.124;6.226;2023-02-01T06:08:52;101845.66;;;6.31;80.46
76024;BME280;64719;52.124;6.226;2023-02-01T06:11:18;101858.78;;;6.34;80.76
76024;BME280;64719;52.124;6.226;2023-02-01T06:13:46;101862.66;;;6.31;80.62
76024;BME280;64719;52.124;6.226;2023-02-01T06:16:13;101853.22;;;6.35;80.51
76024;BME280;64719;52.124;6.226;2023-02-01T06:18:40;101853.06;;;6.29;80.62
76024;BME280;64719;52.124;6.226;2023-02-01T06:21:07;101859.66;;;6.26;80.94
76024;BME280;64719;52.124;6.226;2023-02-01T06:23:34;101857.78;;;6.27;81.16
76024;BME280;64719;52.124;6.226;2023-02-01T06:26:03;101848.56;;;6.21;80.97
76024;BME280;64719;52.124;6.226;2023-02-01T06:28:31;101849.25;;;6.23;81.12
76024;BME280;64719;52.124;6.226;2023-02-01T06:31:03;101840.63;;;6.28;80.86
76024;BME280;64719;52.124;6.226;2023-02-01T06:33:31;101853.97;;;6.21;81.48
76024;BME280;64719;52.124;6.226;2023-02-01T06:35:59;101861.69;;;6.24;81.23
76024;BME280;64719;52.124;6.226;2023-02-01T06:38:26;101851.75;;;6.25;81.18
76024;BME280;64719;52.124;6.226;2023-02-01T06:40:54;101846.84;;;6.28;80.94
76024;BME280;64719;52.124;6.226;2023-02-01T06:43:20;101856.53;;;6.15;81.24
76024;BME280;64719;52.124;6.226;2023-02-01T06:45:47;101853.72;;;6.08;81.98
76024;BME280;64719;52.124;6.226;2023-02-01T06:48:15;101861.31;;;6.05;82.07
76024;BME280;64719;52.124;6.226;2023-02-01T06:50:42;101864.94;;;6.20;81.23
76024;BME280;64719;52.124;6.226;2023-02-01T06:53:08;101869.19;;;6.14;81.29
76024;BME280;64719;52.124;6.226;2023-02-01T06:55:35;101868.88;;;6.09;81.83
76024;BME280;64719;52.124;6.226;2023-02-01T06:58:02;101865.56;;;5.99;81.79
76024;BME280;64719;52.124;6.226;2023-02-01T07:00:29;101870.31;;;5.89;82.27
76024;BME280;64719;52.124;6.226;2023-02-01T07:02:57;101869.50;;;5.89;82.96
76024;BME280;64719;52.124;6.226;2023-02-01T07:05:25;101858.19;;;5.93;82.78
76024;BME280;64719;52.124;6.226;2023-02-01T07:07:52;101883.38;;;6.08;82.15
76024;BME280;64719;52.124;6.226;2023-02-01T07:10:18;101887.19;;;6.14;82.09
76024;BME280;64719;52.124;6.226;2023-02-01T07:12:45;101876.78;;;6.11;82.05
76024;BME280;64719;52.124;6.226;2023-02-01T07:15:11;101888.13;;;5.98;82.49
76024;BME280;64719;52.124;6.226;2023-02-01T07:17:38;101878.91;;;5.93;82.51
76024;BME280;64719;52.124;6.226;2023-02-01T07:20:06;101883.78;;;5.89;82.65
76024;BME280;64719;52.124;6.226;2023-02-01T07:22:34;101886.00;;;5.78;83.53
76024;BME280;64719;52.124;6.226;2023-02-01T07:25:00;101890.38;;;5.79;83.42
76024;BME280;64719;52.124;6.226;2023-02-01T07:27:27;101881.75;;;5.91;83.10
76024;BME280;64719;52.124;6.226;2023-02-01T07:29:53;101885.41;;;5.98;82.67
76024;BME280;64719;52.124;6.226;2023-02-01T07:32:20;101883.91;;;6.04;83.18
76024;BME280;64719;52.124;6.226;2023-02-01T07:34:47;101889.47;;;6.02;83.09
76024;BME280;64719;52.124;6.226;2023-02-01T07:37:13;101884.34;;;6.07;82.79
76024;BME280;64719;52.124;6.226;2023-02-01T07:39:41;101889.41;;;6.10;83.01
76024;BME280;64719;52.124;6.226;2023-02-01T07:42:08;101896.13;;;6.14;82.37
76024;BME280;64719;52.124;6.226;2023-02-01T07:44:34;101894.50;;;6.05;82.82
76024;BME280;64719;52.124;6.226;2023-02-01T07:47:01;101897.47;;;6.10;82.58
76024;BME280;64719;52.124;6.226;2023-02-01T07:49:27;101894.59;;;6.12;82.65
76024;BME280;64719;52.124;6.226;2023-02-01T07:51:54;101902.03;;;6.10;82.73
76024;BME280;64719;52.124;6.226;2023-02-01T07:54:20;101891.44;;;6.08;82.76
76024;BME280;64719;52.124;6.226;2023-02-01T07:56:48;101887.28;;;5.98;83.58
76024;BME280;64719;52.124;6.226;2023-02-01T07:59:15;101893.66;;;6.05;82.87
76024;BME280;64719;52.124;6.226;2023-02-01T08:01:42;101899.03;;;6.05;82.67
76024;BME280;64719;52.124;6.226;2023-02-01T08:04:10;101897.53;;;6.02;83.39
76024;BME280;64719;52.124;6.226;2023-02-01T08:06:37;101898.69;;;6.08;82.81
76024;BME280;64719;52.124;6.226;2023-02-01T08:09:05;101898.22;;;6.27;82.30
76024;BME280;64719;52.124;6.226;2023-02-01T08:11:32;101913.84;;;6.31;81.59
76024;BME280;64719;52.124;6.226;2023-02-01T08:14:03;101903.88;;;6.40;81.83
76024;BME280;64719;52.124;6.226;2023-02-01T08:16:30;101902.44;;;6.52;81.12
76024;BME280;64719;52.124;6.226;2023-02-01T08:18:56;101905.88;;;6.46;81.39
76024;BME280;64719;52.124;6.226;2023-02-01T08:21:25;101908.78;;;6.36;81.95
76024;BME280;64719;52.124;6.226;2023-02-01T08:23:52;101911.47;;;6.36;81.92
76024;BME280;64719;52.124;6.226;2023-02-01T08:26:22;101917.41;;;6.54;81.47
76024;BME280;64719;52.124;6.226;2023-02-01T08:28:50;101902.25;;;6.76;80.81
76024;BME280;64719;52.124;6.226;2023-02-01T08:31:21;101905.78;;;6.99;79.51
76024;BME280;64719;52.124;6.226;2023-02-01T08:33:49;101905.56;;;7.37;78.48
76024;BME280;64719;52.124;6.226;2023-02-01T08:36:17;101898.47;;;7.66;77.41
76024;BME280;64719;52.124;6.226;2023-02-01T08:38:43;101896.34;;;7.76;76.09
76024;BME280;64719;52.124;6.226;2023-02-01T08:41:12;101881.53;;;7.57;76.12
76024;BME280;64719;52.124;6.226;2023-02-01T08:43:39;101900.06;;;7.45;77.45
76024;BME280;64719;52.124;6.226;2023-02-01T08:46:07;101882.28;;;7.36;77.36
76024;BME280;64719;52.124;6.226;2023-02-01T08:48:36;101885.44;;;7.40;77.39
76024;BME280;64719;52.124;6.226;2023-02-01T08:51:04;101867.19;;;7.27;77.36
76024;BME280;64719;52.124;6.226;2023-02-01T08:53:31;101878.00;;;7.27;77.60
76024;BME280;64719;52.124;6.226;2023-02-01T08:55:58;101877.25;;;7.33;77.96
76024;BME280;64719;52.124;6.226;2023-02-01T08:58:25;101868.31;;;7.47;77.71
76024;BME280;64719;52.124;6.226;2023-02-01T09:00:52;101861.69;;;7.65;77.13
76024;BME280;64719;52.124;6.226;2023-02-01T09:03:19;101868.03;;;7.57;76.75
76024;BME280;64719;52.124;6.226;2023-02-01T09:05:46;101860.97;;;7.56;77.15
76024;BME280;64719;52.124;6.226;2023-02-01T09:08:13;101870.66;;;7.65;76.50
76024;BME280;64719;52.124;6.226;2023-02-01T09:10:40;101874.16;;;7.66;77.32
76024;BME280;64719;52.124;6.226;2023-02-01T09:13:07;101890.53;;;8.08;75.58
76024;BME280;64719;52.124;6.226;2023-02-01T09:15:34;101871.09;;;8.19;75.10
76024;BME280;64719;52.124;6.226;2023-02-01T09:18:00;101876.69;;;8.32;74.53
76024;BME280;64719;52.124;6.226;2023-02-01T09:20:27;101868.91;;;7.93;75.24
76024;BME280;64719;52.124;6.226;2023-02-01T09:22:56;101869.09;;;8.06;75.44
76024;BME280;64719;52.124;6.226;2023-02-01T09:25:22;101853.63;;;8.36;73.40
76024;BME280;64719;52.124;6.226;2023-02-01T09:27:49;101862.44;;;8.44;73.47
76024;BME280;64719;52.124;6.226;2023-02-01T09:30:16;101854.66;;;8.20;73.68
76024;BME280;64719;52.124;6.226;2023-02-01T09:32:42;101862.31;;;8.31;73.56
76024;BME280;64719;52.124;6.226;2023-02-01T09:35:09;101856.53;;;8.34;74.08
76024;BME280;64719;52.124;6.226;2023-02-01T09:37:35;101870.16;;;8.26;74.02
76024;BME280;64719;52.124;6.226;2023-02-01T09:40:05;101865.78;;;8.25;74.13
76024;BME280;64719;52.124;6.226;2023-02-01T09:42:48;101872.41;;;8.08;73.29
76024;BME280;64719;52.124;6.226;2023-02-01T09:45:22;101854.81;;;8.12;74.41
76024;BME280;64719;52.124;6.226;2023-02-01T09:47:53;101860.31;;;8.04;74.45
76024;BME280;64719;52.124;6.226;2023-02-01T09:50:25;101867.16;;;7.86;74.99
76024;BME280;64719;52.124;6.226;2023-02-01T09:53:00;101870.09;;;7.70;76.00
76024;BME280;64719;52.124;6.226;2023-02-01T09:55:34;101871.28;;;7.67;76.37
76024;BME280;64719;52.124;6.226;2023-02-01T09:58:05;101877.25;;;7.63;77.05
76024;BME280;64719;52.124;6.226;2023-02-01T10:00:35;101871.59;;;7.58;76.49
76024;BME280;64719;52.124;6.226;2023-02-01T10:03:03;101864.66;;;7.55;76.53
76024;BME280;64719;52.124;6.226;2023-02-01T10:05:53;101871.66;;;7.49;76.89
76024;BME280;64719;52.124;6.226;2023-02-01T10:08:27;101859.38;;;7.47;77.70
76024;BME280;64719;52.124;6.226;2023-02-01T10:11:04;101847.94;;;7.45;77.02
76024;BME280;64719;52.124;6.226;2023-02-01T10:13:43;101861.63;;;7.43;77.11
76024;BME280;64719;52.124;6.226;2023-02-01T10:16:19;101854.25;;;7.37;77.43
76024;BME280;64719;52.124;6.226;2023-02-01T10:19:16;101859.75;;;7.44;77.50
76024;BME280;64719;52.124;6.226;2023-02-01T10:21:52;101853.69;;;7.42;76.91
76024;BME280;64719;52.124;6.226;2023-02-01T10:27:14;101866.84;;;7.30;78.05
76024;BME280;64719;52.124;6.226;2023-02-01T10:29:44;101851.09;;;7.34;77.78
76024;BME280;64719;52.124;6.226;2023-02-01T10:32:16;101860.78;;;7.28;78.25
76024;BME280;64719;52.124;6.226;2023-02-01T10:34:44;101853.31;;;7.16;79.67
76024;BME280;64719;52.124;6.226;2023-02-01T10:37:26;101844.66;;;6.91;82.90
76024;BME280;64719;52.124;6.226;2023-02-01T10:39:54;101847.28;;;6.77;84.59
76024;BME280;64719;52.124;6.226;2023-02-01T10:42:26;101853.22;;;6.72;85.05
76024;BME280;64719;52.124;6.226;2023-02-01T10:44:55;101846.66;;;6.75;86.22
76024;BME280;64719;52.124;6.226;2023-02-01T10:47:22;101841.13;;;6.68;86.60
76024;BME280;64719;52.124;6.226;2023-02-01T10:49:54;101837.50;;;6.61;87.22
76024;BME280;64719;52.124;6.226;2023-02-01T10:52:31;101847.63;;;6.59;87.76
76024;BME280;64719;52.124;6.226;2023-02-01T10:55:34;101849.00;;;6.55;88.77
76024;BME280;64719;52.124;6.226;2023-02-01T10:58:05;101840.31;;;6.45;89.71
76024;BME280;64719;52.124;6.226;2023-02-01T11:00:53;101845.25;;;6.42;90.18
76024;BME280;64719;52.124;6.226;2023-02-01T11:03:41;101846.59;;;6.38;90.49
76024;BME280;64719;52.124;6.226;2023-02-01T11:06:19;101845.34;;;6.26;90.86
76024;BME280;64719;52.124;6.226;2023-02-01T11:08:50;101839.81;;;6.19;91.06
76024;BME280;64719;52.124;6.226;2023-02-01T11:11:17;101844.75;;;6.16;91.64
76024;BME280;64719;52.124;6.226;2023-02-01T11:13:52;101823.56;;;6.13;91.65
76024;BME280;64719;52.124;6.226;2023-02-01T11:16:18;101826.78;;;6.08;91.98
76024;BME280;64719;52.124;6.226;2023-02-01T11:18:53;101828.75;;;6.14;91.58
76024;BME280;64719;52.124;6.226;2023-02-01T11:21:20;101825.81;;;6.24;91.16
76024;BME280;64719;52.124;6.226;2023-02-01T11:23:47;101826.47;;;6.26;90.88
76024;BME280;64719;52.124;6.226;2023-02-01T11:26:20;101814.97;;;6.32;90.55
76024;BME280;64719;52.124;6.226;2023-02-01T11:28:54;101805.69;;;6.34;90.07
76024;BME280;64719;52.124;6.226;2023-02-01T11:31:24;101803.00;;;6.34;90.23
76024;BME280;64719;52.124;6.226;2023-02-01T11:33:55;101799.75;;;6.39;90.06
76024;BME280;64719;52.124;6.226;2023-02-01T11:36:27;101792.94;;;6.51;89.82
76024;BME280;64719;52.124;6.226;2023-02-01T11:39:08;101787.25;;;6.46;89.55
76024;BME280;64719;52.124;6.226;2023-02-01T11:41:41;101793.38;;;6.40;90.05
76024;BME280;64719;52.124;6.226;2023-02-01T11:44:20;101797.72;;;6.41;90.40
76024;BME280;64719;52.124;6.226;2023-02-01T11:46:48;101795.69;;;6.43;90.46
76024;BME280;64719;52.124;6.226;2023-02-01T11:49:21;101782.69;;;6.46;90.25
76024;BME280;64719;52.124;6.226;2023-02-01T11:51:58;101784.69;;;6.67;89.14
76024;BME280;64719;52.124;6.226;2023-02-01T11:54:41;101782.84;;;6.67;88.64
76024;BME280;64719;52.124;6.226;2023-02-01T11:57:23;101790.50;;;6.56;88.61
76024;BME280;64719;52.124;6.226;2023-02-01T12:00:24;101783.66;;;6.68;88.07
76024;BME280;64719;52.124;6.226;2023-02-01T12:03:09;101784.09;;;7.23;85.95
76024;BME280;64719;52.124;6.226;2023-02-01T12:05:47;101791.84;;;7.76;83.31
76024;BME280;64719;52.124;6.226;2023-02-01T12:08:37;101771.00;;;7.56;82.18
76024;BME280;64719;52.124;6.226;2023-02-01T12:11:24;101778.16;;;7.99;81.38
76024;BME280;64719;52.124;6.226;2023-02-01T12:14:06;101764.75;;;7.91;80.54
76024;BME280;64719;52.124;6.226;2023-02-01T12:16:43;101775.47;;;7.84;80.80
76024;BME280;64719;52.124;6.226;2023-02-01T12:19:35;101788.38;;;8.03;80.02
76024;BME280;64719;52.124;6.226;2023-02-01T12:22:22;101785.13;;;7.72;81.34
76024;BME280;64719;52.124;6.226;2023-02-01T12:25:10;101777.69;;;7.60;81.42
76024;BME280;64719;52.124;6.226;2023-02-01T12:27:49;101801.69;;;7.69;81.50
76024;BME280;64719;52.124;6.226;2023-02-01T12:33:30;101784.50;;;7.70;81.00
76024;BME280;64719;52.124;6.226;2023-02-01T12:36:08;101772.28;;;7.60;81.16
76024;BME280;64719;52.124;6.226;2023-02-01T12:38:44;101770.50;;;7.67;81.65
76024;BME280;64719;52.124;6.226;2023-02-01T12:41:22;101767.72;;;7.60;81.93
76024;BME280;64719;52.124;6.226;2023-02-01T12:43:56;101762.69;;;7.57;81.63
76024;BME280;64719;52.124;6.226;2023-02-01T12:46:28;101775.06;;;7.66;81.57
76024;BME280;64719;52.124;6.226;2023-02-01T12:49:04;101771.78;;;7.71;80.59
76024;BME280;64719;52.124;6.226;2023-02-01T12:51:36;101765.44;;;7.78;80.82
76024;BME280;64719;52.124;6.226;2023-02-01T12:54:09;101759.94;;;7.86;80.37
76024;BME280;64719;52.124;6.226;2023-02-01T12:56:38;101759.16;;;7.92;80.54
76024;BME280;64719;52.124;6.226;2023-02-01T12:59:15;101763.53;;;7.93;79.52
76024;BME280;64719;52.124;6.226;2023-02-01T13:01:46;101762.44;;;7.88;80.14
76024;BME280;64719;52.124;6.226;2023-02-01T13:04:24;101751.16;;;7.84;80.12
76024;BME280;64719;52.124;6.226;2023-02-01T13:06:54;101760.25;;;7.98;79.17
76024;BME280;64719;52.124;6.226;2023-02-01T13:09:26;101773.13;;;7.75;79.59
76024;BME280;64719;52.124;6.226;2023-02-01T13:11:55;101776.09;;;7.65;81.79
76024;BME280;64719;52.124;6.226;2023-02-01T13:14:29;101751.44;;;7.53;82.52
76024;BME280;64719;52.124;6.226;2023-02-01T13:17:01;101773.88;;;7.54;82.41
76024;BME280;64719;52.124;6.226;2023-02-01T13:19:44;101771.56;;;7.51;82.75
76024;BME280;64719;52.124;6.226;2023-02-01T13:22:15;101770.47;;;7.45;84.40
76024;BME280;64719;52.124;6.226;2023-02-01T13:24:45;101763.56;;;7.43;84.62
76024;BME280;64719;52.124;6.226;2023-02-01T13:27:16;101763.84;;;7.48;84.96
76024;BME280;64719;52.124;6.226;2023-02-01T13:29:48;101757.03;;;7.52;84.00
76024;BME280;64719;52.124;6.226;2023-02-01T13:32:31;101770.09;;;7.48;84.61